CheckWX is a tool to help pilots better visualize weather data.  It is not intended as a substitute for an official pre-flight weather briefing.

12:47:06 UTC

KAFO METAR
Afton Municipal Airport
Afton, Wyoming, USA
Current

32 mins ago

KAFO 221215Z AUTO 35005KT 10SM CLR M19/M21 A2979 RMK AO2
Observed
Feb-22 @ 12:15 UTC
Wind
  • 350° at 5 KTS
Visibility
10 SM
Flight Rules
VFR
Cloud Levels
  • Clear skies
Temperature
-19°C / -2°F
Dewpoint
-21°C / -6°F
Humidity
84%
Altimeter
29.79" Hg
Pressure
1008.82 hPa
Previous

52 mins ago

KAFO 221155Z AUTO 32004KT 10SM CLR M18/M20 A2979 RMK AO2
Observed
Feb-22 @ 11:55 UTC
Wind
  • 320° at 4 KTS
Visibility
10 SM
Flight Rules
VFR
Cloud Levels
  • Clear skies
Temperature
-18°C / -0°F
Dewpoint
-20°C / -4°F
Humidity
84%
Altimeter
29.79" Hg
Pressure
1008.82 hPa
Previous

1 hour ago

KAFO 221135Z AUTO 00000KT 10SM CLR M19/M21 A2978 RMK AO2
Observed
Feb-22 @ 11:35 UTC
Visibility
10 SM
Flight Rules
VFR
Cloud Levels
  • Clear skies
Temperature
-19°C / -2°F
Dewpoint
-21°C / -6°F
Humidity
84%
Altimeter
29.78" Hg
Pressure
1008.42 hPa